Terminal Aerodrome Forecast
Issued by NWS

Home | Current Version | Previous Version | Text Only | Print | Product List | Glossary On
Versions: 1 2 3 4 5 6 7 8 9 10 11 12 13 14 15 16
046
FTUS43 KILX 262002 AAA
TAFDEC
TAF AMD
KDEC 262002Z 2620/2718 21012KT P6SM SCT060
     FM270200 29007KT P6SM SCT030 BKN060
     FM270600 33008KT P6SM SCT015 BKN035
     FM271500 35010KT P6SM SCT045=

USA.gov is the U.S. government's official web portal to all federal, state and local government web resources and services.